Time;durP1;ratioP1;P1;durP2;ratioP2;P2;SDS_P1;SDS_P2;PMS_P1;PMS_P2;Temp;Humidity;BMP_temperature;BMP_pressure;BME280_temperature;BME280_humidity;BME280_pressure;Samples;Min_cycle;Max_cycle;Signal;HPM_P1;HPM_P2
2022/09/04 00:01:22;;;;;;;7.78;2.17;;;16.10;98.40;;;;;;5048454;28;20057;-72
2022/09/04 00:03:59;;;;;;;6.32;1.80;;;16.10;98.60;;;;;;5066380;28;20078;-72
2022/09/04 00:06:31;;;;;;;7.00;1.98;;;16.30;98.90;;;;;;5050575;28;20036;-72
2022/09/04 00:09:02;;;;;;;7.75;1.80;;;15.90;98.80;;;;;;5071217;28;20059;-71
2022/09/04 00:11:34;;;;;;;6.80;1.98;;;15.90;99.00;;;;;;5068822;28;20082;-71
2022/09/04 00:14:08;;;;;;;6.25;2.08;;;15.90;99.10;;;;;;5051059;28;20048;-71
2022/09/04 00:17:02;;;;;;;7.43;2.00;;;15.80;99.20;;;;;;5051315;28;20051;-72
2022/09/04 00:19:46;;;;;;;7.38;1.90;;;15.80;99.30;;;;;;5064024;28;20060;-71
2022/09/04 00:22:23;;;;;;;10.00;2.08;;;15.80;99.30;;;;;;5033399;28;20036;-71
2022/09/04 00:25:12;;;;;;;8.52;1.90;;;15.70;99.40;;;;;;5068617;28;20044;-71
2022/09/04 00:27:44;;;;;;;9.25;2.45;;;15.70;99.60;;;;;;5069944;28;20048;-72
2022/09/04 00:30:19;;;;;;;5.80;2.00;;;15.60;99.70;;;;;;5078364;28;20103;-69
2022/09/04 00:33:04;;;;;;;6.72;2.00;;;15.60;99.90;;;;;;5045458;28;20036;-72
2022/09/04 00:35:35;;;;;;;6.03;1.90;;;15.50;99.90;;;;;;5050267;28;20506;-71
2022/09/04 00:38:16;;;;;;;6.80;1.95;;;15.50;99.90;;;;;;5066588;28;20056;-72
2022/09/04 00:40:55;;;;;;;5.72;1.90;;;15.50;99.90;;;;;;5094056;28;20067;-71
2022/09/04 00:43:40;;;;;;;6.32;2.00;;;15.50;99.90;;;;;;5051837;28;20040;-72
2022/09/04 00:46:30;;;;;;;5.57;2.10;;;15.50;99.90;;;;;;5069470;28;20119;-71
2022/09/04 00:49:20;;;;;;;4.53;1.80;;;15.50;99.90;;;;;;5059764;28;20518;-71
2022/09/04 00:52:15;;;;;;;6.10;2.17;;;15.40;99.90;;;;;;5039197;28;20063;-71
2022/09/04 00:54:52;;;;;;;6.13;1.80;;;15.40;99.90;;;;;;5046833;28;20102;-71
2022/09/04 00:57:29;;;;;;;6.03;1.98;;;15.40;99.90;;;;;;5047242;28;20495;-71
2022/09/04 01:00:08;;;;;;;5.38;2.03;;;15.30;99.90;;;;;;5020889;28;20059;-73
2022/09/04 01:02:55;;;;;;;6.60;2.00;;;15.30;99.90;;;;;;5031741;28;20041;-72
2022/09/04 01:05:48;;;;;;;6.82;1.92;;;15.30;99.90;;;;;;5049235;28;20404;-71
2022/09/04 01:08:42;;;;;;;10.00;2.30;;;15.30;99.90;;;;;;5037932;28;20380;-71
2022/09/04 01:11:13;;;;;;;7.15;2.13;;;15.30;99.90;;;;;;5046575;28;20040;-72
2022/09/04 01:13:47;;;;;;;7.55;2.28;;;15.20;99.90;;;;;;5065926;28;20039;-71
2022/09/04 01:16:34;;;;;;;6.85;1.98;;;15.20;99.90;;;;;;5047953;28;20123;-72
2022/09/04 01:19:33;;;;;;;5.97;1.88;;;15.20;99.90;;;;;;5082549;28;20119;-73
2022/09/04 01:21:58;;;;;;;6.43;1.90;;;15.20;99.90;;;;;;5048247;28;20044;-71
2022/09/04 01:24:43;;;;;;;6.53;2.00;;;15.10;99.90;;;;;;5066499;28;20283;-72
2022/09/04 01:27:20;;;;;;;7.25;1.92;;;15.10;99.90;;;;;;5067789;28;20051;-71
2022/09/04 01:29:57;;;;;;;6.65;2.00;;;15.10;99.90;;;;;;5050543;28;20112;-72
2022/09/04 01:32:44;;;;;;;9.75;2.38;;;15.10;99.90;;;;;;5046156;28;20113;-71
2022/09/04 01:35:38;;;;;;;8.10;1.98;;;15.10;99.90;;;;;;5067575;28;20142;-71
2022/09/04 01:38:46;;;;;;;6.25;2.05;;;15.00;99.90;;;;;;5059751;28;20683;-72
2022/09/04 01:41:37;;;;;;;6.70;2.05;;;15.00;99.90;;;;;;5032183;28;20487;-72
2022/09/04 01:44:08;;;;;;;7.72;2.20;;;15.00;99.90;;;;;;5068093;28;20036;-71
2022/09/04 01:46:56;;;;;;;6.63;2.10;;;14.90;99.90;;;;;;5049442;28;20206;-71
2022/09/04 01:49:42;;;;;;;7.88;2.00;;;14.90;99.90;;;;;;5065343;28;20391;-72
2022/09/04 01:52:39;;;;;;;6.70;2.10;;;14.90;99.90;;;;;;5067981;28;20037;-71
2022/09/04 01:55:12;;;;;;;8.23;2.10;;;14.80;99.90;;;;;;5067586;28;20036;-71
2022/09/04 01:58:02;;;;;;;7.38;2.30;;;14.80;99.90;;;;;;5048584;28;20087;-71
2022/09/04 02:00:44;;;;;;;5.97;1.90;;;14.70;99.90;;;;;;5065402;28;20530;-72
2022/09/04 02:03:38;;;;;;;6.78;2.10;;;14.60;99.90;;;;;;5033686;28;20225;-70
2022/09/04 02:06:26;;;;;;;6.45;2.17;;;14.60;99.90;;;;;;5049554;28;20553;-72
2022/09/04 02:09:36;;;;;;;5.78;1.80;;;14.60;99.90;;;;;;5046866;28;20044;-70
2022/09/04 02:12:21;;;;;;;6.50;2.22;;;14.60;99.90;;;;;;4968867;28;20044;-72
2022/09/04 02:15:06;;;;;;;7.47;2.10;;;14.50;99.90;;;;;;5063382;28;20076;-72
2022/09/04 02:18:06;;;;;;;7.18;2.30;;;15.60;99.90;;;;;;5064668;28;20041;-72
2022/09/04 02:20:32;;;;;;;5.70;2.10;;;14.50;99.90;;;;;;5048427;28;20394;-72
2022/09/04 02:23:25;;;;;;;7.80;2.08;;;14.40;99.90;;;;;;5053428;28;20044;-71
2022/09/04 02:26:01;;;;;;;8.00;2.40;;;14.40;99.90;;;;;;5085247;28;20037;-71
2022/09/04 02:28:34;;;;;;;6.13;2.03;;;14.40;99.90;;;;;;5047379;28;20043;-72
2022/09/04 02:31:28;;;;;;;7.22;2.00;;;14.30;99.90;;;;;;5085817;28;20049;-71
2022/09/04 02:34:08;;;;;;;6.47;2.20;;;14.40;99.90;;;;;;5083487;28;20047;-72
2022/09/04 02:36:59;;;;;;;8.52;2.20;;;14.30;99.90;;;;;;5095272;28;20491;-71
2022/09/04 02:39:48;;;;;;;5.50;2.00;;;15.50;99.90;;;;;;5036617;28;20076;-70
2022/09/04 02:42:49;;;;;;;6.10;2.08;;;14.20;99.90;;;;;;5068491;28;20040;-71
2022/09/04 02:45:19;;;;;;;6.10;2.30;;;14.20;99.90;;;;;;5046465;28;20044;-71
2022/09/04 02:48:12;;;;;;;7.47;2.10;;;14.20;99.90;;;;;;5048289;28;20089;-71
2022/09/04 02:51:12;;;;;;;5.67;2.20;;;14.20;99.90;;;;;;5042441;28;20590;-72
2022/09/04 02:53:49;;;;;;;6.63;2.30;;;14.20;99.90;;;;;;5048892;28;21829;-72
2022/09/04 02:56:35;;;;;;;6.03;2.05;;;14.10;99.90;;;;;;5050911;28;20392;-72
2022/09/04 02:59:02;;;;;;;5.63;2.13;;;;;;;;;;5065335;28;20106;-72
2022/09/04 03:01:34;;;;;;;7.03;2.40;;;14.10;99.90;;;;;;5048644;28;20498;-71
2022/09/04 03:04:06;;;;;;;7.60;2.40;;;14.10;99.90;;;;;;5045755;28;20036;-71
2022/09/04 03:06:53;;;;;;;6.63;2.08;;;14.10;99.90;;;;;;5050901;28;20048;-71
2022/09/04 03:10:08;;;;;;;7.95;2.20;;;14.10;99.90;;;;;;5051465;28;20040;-71
2022/09/04 03:13:01;;;;;;;5.82;2.10;;;14.00;99.90;;;;;;5033363;28;20145;-71
2022/09/04 03:15:47;;;;;;;6.13;2.10;;;14.00;99.90;;;;;;5047422;28;20060;-72
2022/09/04 03:18:22;;;;;;;4.72;1.90;;;13.90;99.90;;;;;;5049189;28;20128;-72
2022/09/04 03:21:00;;;;;;;6.50;2.20;;;13.90;99.90;;;;;;5049594;28;20067;-71
2022/09/04 03:24:01;;;;;;;6.68;2.20;;;13.80;99.90;;;;;;5046650;28;20049;-70
2022/09/04 03:26:36;;;;;;;5.22;2.17;;;13.80;99.90;;;;;;5046565;28;20538;-72
2022/09/04 03:29:23;;;;;;;6.72;2.00;;;13.80;99.90;;;;;;5030112;28;20526;-71
2022/09/04 03:32:18;;;;;;;6.35;2.00;;;13.80;99.90;;;;;;5047303;28;20041;-72
2022/09/04 03:34:55;;;;;;;5.85;2.00;;;13.80;99.90;;;;;;5021898;28;20434;-70
2022/09/04 03:37:43;;;;;;;6.43;2.10;;;13.70;99.90;;;;;;5045272;28;20269;-71
2022/09/04 03:40:41;;;;;;;6.68;2.10;;;13.70;99.90;;;;;;5048485;28;20045;-70
2022/09/04 03:43:19;;;;;;;8.60;2.42;;;13.60;99.90;;;;;;5026679;28;20092;-72
2022/09/04 03:46:09;;;;;;;9.02;2.38;;;13.60;99.90;;;;;;5030309;28;20116;-72
2022/09/04 03:48:54;;;;;;;8.13;2.20;;;13.60;99.90;;;;;;5037483;28;20231;-70
2022/09/04 03:51:24;;;;;;;6.40;2.10;;;13.50;99.90;;;;;;5034064;28;20093;-72
2022/09/04 03:54:27;;;;;;;8.88;2.63;;;13.50;99.90;;;;;;5048387;28;20289;-72
2022/09/04 03:57:27;;;;;;;9.57;2.20;;;13.50;99.90;;;;;;5029039;28;20045;-71
2022/09/04 04:00:09;;;;;;;8.88;2.33;;;13.50;99.90;;;;;;5044497;28;20107;-71
2022/09/04 04:02:56;;;;;;;10.82;2.55;;;13.50;99.90;;;;;;5031781;28;20041;-72
2022/09/04 04:06:11;;;;;;;7.47;2.40;;;13.50;99.90;;;;;;5048710;28;20380;-71
2022/09/04 04:09:11;;;;;;;10.98;3.13;;;13.40;99.90;;;;;;5016557;28;20057;-71
2022/09/04 04:12:01;;;;;;;9.23;2.70;;;13.40;99.90;;;;;;5047085;28;20120;-72
2022/09/04 04:14:55;;;;;;;8.02;2.38;;;13.40;99.90;;;;;;5047737;28;20481;-71
2022/09/04 04:17:46;;;;;;;7.00;2.40;;;13.40;99.90;;;;;;5044433;28;20152;-72
2022/09/04 04:20:15;;;;;;;9.27;2.50;;;13.40;99.90;;;;;;5081593;28;20511;-71
2022/09/04 04:22:59;;;;;;;6.35;2.20;;;13.30;99.90;;;;;;5029293;28;20491;-71
2022/09/04 04:25:46;;;;;;;6.18;2.30;;;13.30;99.90;;;;;;5047950;28;20044;-71
2022/09/04 04:28:35;;;;;;;6.10;2.40;;;13.30;99.90;;;;;;5079848;28;20049;-71
2022/09/04 04:31:27;;;;;;;7.53;2.40;;;13.30;99.90;;;;;;5044871;28;20415;-70
2022/09/04 04:34:24;;;;;;;7.38;2.50;;;13.20;99.90;;;;;;5044799;28;20033;-72
2022/09/04 04:37:02;;;;;;;9.45;2.60;;;13.20;99.90;;;;;;5045880;28;20041;-72
2022/09/04 04:39:49;;;;;;;7.30;2.30;;;13.20;99.90;;;;;;5046258;28;20031;-72
2022/09/04 04:42:45;;;;;;;7.88;2.72;;;13.20;99.90;;;;;;5046007;28;20106;-72
2022/09/04 04:45:50;;;;;;;6.55;2.30;;;13.20;99.90;;;;;;5041504;28;20052;-71
2022/09/04 04:48:25;;;;;;;6.18;2.28;;;13.20;99.90;;;;;;5046046;28;20132;-72
2022/09/04 04:51:11;;;;;;;9.40;2.22;;;13.20;99.90;;;;;;5048809;28;20403;-71
2022/09/04 04:53:56;;;;;;;7.15;2.50;;;13.20;99.90;;;;;;5078241;28;20041;-72
2022/09/04 04:56:45;;;;;;;7.18;2.53;;;13.20;99.90;;;;;;5043096;28;20041;-71
2022/09/04 04:59:22;;;;;;;8.45;2.25;;;13.20;99.90;;;;;;5030233;28;20037;-71
2022/09/04 05:02:19;;;;;;;7.00;2.40;;;13.10;99.90;;;;;;5046365;28;20056;-72
2022/09/04 05:04:56;;;;;;;9.07;2.58;;;13.20;99.90;;;;;;5047187;28;20040;-72
2022/09/04 05:07:48;;;;;;;8.02;2.42;;;13.20;99.90;;;;;;5026483;28;20045;-71
2022/09/04 05:10:41;;;;;;;6.80;2.33;;;13.20;99.90;;;;;;5031518;28;20049;-72
2022/09/04 05:13:23;;;;;;;8.02;2.50;;;13.10;99.90;;;;;;5031633;28;20295;-73
2022/09/04 05:16:24;;;;;;;6.40;2.40;;;13.10;99.90;;;;;;5059757;28;20102;-72
2022/09/04 05:19:28;;;;;;;6.90;2.30;;;13.10;99.90;;;;;;5046316;28;20037;-72
2022/09/04 05:22:24;;;;;;;9.35;3.17;;;13.10;99.90;;;;;;5045221;28;20626;-71
2022/09/04 05:25:13;;;;;;;7.72;2.60;;;13.10;99.90;;;;;;5028378;28;20748;-72
2022/09/04 05:27:47;;;;;;;7.35;2.22;;;13.10;99.90;;;;;;5046514;28;20454;-71
2022/09/04 05:30:49;;;;;;;7.43;2.50;;;13.10;99.90;;;;;;5045840;28;20048;-72
2022/09/04 05:33:21;;;;;;;7.00;2.40;;;13.10;99.90;;;;;;5041193;28;20048;-71
2022/09/04 05:35:54;;;;;;;8.32;2.53;;;13.10;99.90;;;;;;5076625;28;20036;-71
2022/09/04 05:38:49;;;;;;;6.65;2.47;;;13.20;99.90;;;;;;5059499;28;20041;-72
2022/09/04 05:41:21;;;;;;;8.50;2.50;;;13.20;99.90;;;;;;5042836;28;20128;-71
2022/09/04 05:43:53;;;;;;;8.05;2.50;;;13.20;99.90;;;;;;5045711;28;20029;-70
2022/09/04 05:46:48;;;;;;;8.82;2.40;;;13.20;99.90;;;;;;5044953;28;20094;-72
2022/09/04 05:49:14;;;;;;;6.60;2.25;;;13.20;99.90;;;;;;5032727;28;20391;-71
2022/09/04 05:52:27;;;;;;;6.63;2.30;;;13.20;99.90;;;;;;5052198;28;20048;-70
2022/09/04 05:55:10;;;;;;;7.72;2.58;;;13.20;99.90;;;;;;4951915;28;20047;-72
2022/09/04 05:57:51;;;;;;;8.50;2.80;;;13.30;99.90;;;;;;5031081;28;20053;-72
2022/09/04 06:00:21;;;;;;;6.80;2.40;;;12.40;99.90;;;;;;5029009;28;20197;-72
2022/09/04 06:03:05;;;;;;;7.90;2.50;;;13.30;99.90;;;;;;5030542;28;20048;-72
2022/09/04 06:05:50;;;;;;;8.40;2.50;;;13.30;99.90;;;;;;5019740;28;20042;-72
2022/09/04 06:08:37;;;;;;;7.97;2.40;;;13.30;99.90;;;;;;5040513;28;20119;-71
2022/09/04 06:11:31;;;;;;;6.88;2.38;;;13.40;99.90;;;;;;5026204;28;20067;-71
2022/09/04 06:14:06;;;;;;;7.05;2.40;;;13.20;99.90;;;;;;5057626;28;20068;-72
2022/09/04 06:16:59;;;;;;;6.07;2.30;;;13.40;99.90;;;;;;5021553;28;20683;-72
2022/09/04 06:19:46;;;;;;;;;;;13.50;99.90;;;;;;5021774;28;20040;-72
2022/09/04 06:22:11;;;;;;;7.13;2.50;;;13.50;99.90;;;;;;5045967;28;19923;-71
2022/09/04 06:25:09;;;;;;;8.45;2.53;;;13.50;99.90;;;;;;5047700;28;20103;-72
2022/09/04 06:28:07;;;;;;;7.25;2.60;;;13.60;99.90;;;;;;5030265;28;20637;-73
2022/09/04 06:30:50;;;;;;;5.90;2.33;;;13.70;99.90;;;;;;5022988;28;20105;-72
2022/09/04 06:33:23;;;;;;;6.50;2.20;;;13.70;99.90;;;;;;5046648;28;20029;-71
2022/09/04 06:36:21;;;;;;;;;;;13.80;99.90;;;;;;5025546;28;20396;-72
2022/09/04 06:39:09;;;;;;;7.78;2.42;;;13.90;99.90;;;;;;5010354;28;19938;-72
2022/09/04 06:41:49;;;;;;;7.18;2.47;;;14.00;99.90;;;;;;5010940;28;20041;-73
2022/09/04 06:44:49;;;;;;;8.82;2.58;;;14.10;99.90;;;;;;5030877;28;20495;-71
2022/09/04 06:47:35;;;;;;;8.73;3.00;;;14.20;99.90;;;;;;5031325;28;20110;-71
2022/09/04 06:50:04;;;;;;;7.30;2.58;;;14.40;99.90;;;;;;5044118;28;20518;-73
2022/09/04 06:52:43;;;;;;;11.00;2.65;;;14.50;99.90;;;;;;5012425;28;20093;-73
2022/09/04 06:55:20;;;;;;;8.80;2.67;;;14.70;99.90;;;;;;5028246;28;20116;-72
2022/09/04 06:58:04;;;;;;;7.45;2.47;;;14.80;99.90;;;;;;5021911;28;20057;-72
2022/09/04 07:00:53;;;;;;;8.05;2.40;;;15.10;99.90;;;;;;5022168;28;20046;-72
2022/09/04 07:03:23;;;;;;;7.60;2.55;;;15.60;99.90;;;;;;5020674;28;20041;-73
2022/09/04 07:06:08;;;;;;;8.00;2.70;;;15.40;99.90;;;;;;5030144;28;20037;-73
2022/09/04 07:08:46;;;;;;;8.23;2.65;;;15.60;99.90;;;;;;5014747;28;20048;-72
2022/09/04 07:11:30;;;;;;;7.40;2.47;;;15.90;99.90;;;;;;5047219;28;20040;-72
2022/09/04 07:14:20;;;;;;;7.00;2.50;;;16.10;99.90;;;;;;5029669;28;20037;-73
2022/09/04 07:17:07;;;;;;;8.95;2.55;;;16.20;99.90;;;;;;5045488;28;20045;-73
2022/09/04 07:20:03;;;;;;;6.68;2.38;;;16.40;99.90;;;;;;5033190;28;20033;-72
2022/09/04 07:22:37;;;;;;;9.85;2.40;;;17.20;99.90;;;;;;5046739;28;20089;-73
2022/09/04 07:25:27;;;;;;;7.20;2.50;;;16.80;99.90;;;;;;5027331;28;20105;-72
2022/09/04 07:28:32;;;;;;;6.85;2.33;;;16.90;99.90;;;;;;5042765;28;20120;-73
2022/09/04 07:31:12;;;;;;;7.03;2.40;;;17.10;99.90;;;;;;5062210;28;20132;-72
2022/09/04 07:33:48;;;;;;;6.38;2.25;;;16.70;99.90;;;;;;5029862;28;20417;-72
2022/09/04 07:36:38;;;;;;;8.10;2.40;;;17.30;99.90;;;;;;5024163;28;20040;-74
2022/09/04 07:39:31;;;;;;;9.18;2.53;;;17.50;99.90;;;;;;5055784;28;20037;-72
2022/09/04 07:42:34;;;;;;;6.95;2.50;;;17.70;99.90;;;;;;5045210;28;20040;-71
2022/09/04 07:45:28;;;;;;;7.03;2.33;;;17.80;99.90;;;;;;4977117;28;20047;-72
2022/09/04 07:48:15;;;;;;;7.32;2.50;;;18.00;99.90;;;;;;5056586;28;20067;-72
2022/09/04 07:51:09;;;;;;;6.45;2.45;;;18.20;99.90;;;;;;5054223;28;20211;-73
2022/09/04 07:54:03;;;;;;;8.13;2.60;;;19.70;99.90;;;;;;5023773;28;20029;-72
2022/09/04 07:56:56;;;;;;;9.45;2.50;;;18.40;99.90;;;;;;5032091;28;20048;-73
2022/09/04 07:59:25;;;;;;;10.63;2.60;;;18.50;99.90;;;;;;5029846;28;20128;-73
2022/09/04 08:02:19;;;;;;;8.13;2.50;;;18.60;99.90;;;;;;5044258;28;20033;-73
2022/09/04 08:04:53;;;;;;;7.00;2.30;;;18.70;99.90;;;;;;5029912;28;20044;-73
2022/09/04 08:08:00;;;;;;;6.30;2.30;;;18.70;99.90;;;;;;5031164;28;20037;-73
2022/09/04 08:10:52;;;;;;;6.43;2.40;;;18.80;99.90;;;;;;5050275;28;20029;-73
2022/09/04 08:13:39;;;;;;;6.78;2.40;;;18.90;99.90;;;;;;5025631;28;20094;-73
2022/09/04 08:16:17;;;;;;;8.10;2.50;;;19.00;99.90;;;;;;5046059;28;20088;-73
2022/09/04 08:19:07;;;;;;;7.55;2.42;;;19.20;99.90;;;;;;5048140;28;20041;-72
2022/09/04 08:21:38;;;;;;;6.10;2.30;;;19.30;99.90;;;;;;5044766;28;20068;-74
2022/09/04 08:24:37;;;;;;;6.10;2.15;;;19.30;99.90;;;;;;5041564;28;20071;-72
2022/09/04 08:27:41;;;;;;;7.40;2.40;;;19.40;99.90;;;;;;5046952;28;20072;-73
2022/09/04 08:30:09;;;;;;;8.30;2.60;;;19.50;99.90;;;;;;5047818;28;20040;-73
2022/09/04 08:33:08;;;;;;;6.60;2.42;;;19.60;99.90;;;;;;5028646;28;22092;-72
2022/09/04 08:35:55;;;;;;;7.10;2.10;;;19.70;99.90;;;;;;5047661;28;20560;-73
2022/09/04 08:38:37;;;;;;;6.60;2.30;;;19.80;99.90;;;;;;5030432;28;20041;-72
2022/09/04 08:41:14;;;;;;;7.10;2.30;;;19.90;99.90;;;;;;5049318;28;20495;-73
2022/09/04 08:44:08;;;;;;;6.35;2.28;;;20.00;99.90;;;;;;5046455;28;20156;-74
2022/09/04 08:47:06;;;;;;;8.52;2.40;;;20.10;99.90;;;;;;5049465;28;20045;-73
2022/09/04 08:49:55;;;;;;;7.80;2.30;;;20.20;99.90;;;;;;5049035;28;20049;-73
2022/09/04 08:52:39;;;;;;;7.30;2.03;;;19.30;99.90;;;;;;5046687;28;20072;-74
2022/09/04 08:55:13;;;;;;;6.40;2.40;;;20.50;99.90;;;;;;5047845;28;20033;-74
2022/09/04 08:57:39;;;;;;;7.88;2.40;;;20.50;99.90;;;;;;5030909;28;20049;-72
2022/09/04 09:00:16;;;;;;;7.63;2.20;;;20.70;99.90;;;;;;5046193;28;20176;-72
2022/09/04 09:03:21;;;;;;;12.70;2.88;;;20.80;99.90;;;;;;5045189;28;20107;-73
2022/09/04 09:06:18;;;;;;;9.07;2.30;;;20.90;99.90;;;;;;5045690;28;20037;-73
2022/09/04 09:09:02;;;;;;;6.97;2.10;;;21.00;99.90;;;;;;5046819;28;20043;-71
2022/09/04 09:11:40;;;;;;;6.13;2.10;;;21.10;99.90;;;;;;5047281;28;20513;-72
2022/09/04 09:14:37;;;;;;;6.32;2.28;;;21.20;99.90;;;;;;5023552;28;20095;-72
2022/09/04 09:17:11;;;;;;;5.80;2.30;;;21.30;99.90;;;;;;5044908;28;20570;-72
2022/09/04 09:20:02;;;;;;;7.40;2.28;;;21.50;99.90;;;;;;5041602;28;20040;-73
2022/09/04 09:23:22;;;;;;;5.50;2.08;;;21.50;99.90;;;;;;5026319;28;20565;-72
2022/09/04 09:26:14;;;;;;;7.70;1.98;;;21.60;99.90;;;;;;5059488;28;20037;-71
2022/09/04 09:29:07;;;;;;;6.28;2.00;;;21.70;99.90;;;;;;5047613;28;20045;-72
2022/09/04 09:31:55;;;;;;;5.68;2.00;;;21.80;99.90;;;;;;5015342;28;20045;-71
2022/09/04 09:34:48;;;;;;;6.55;2.08;;;21.90;99.90;;;;;;5048215;28;20226;-72
2022/09/04 09:37:19;;;;;;;6.15;1.85;;;22.10;99.90;;;;;;5046469;28;20041;-72
2022/09/04 09:40:10;;;;;;;5.82;1.85;;;22.10;99.90;;;;;;5044740;28;20033;-73
2022/09/04 09:42:57;;;;;;;6.43;2.20;;;22.30;99.90;;;;;;5047861;28;20036;-72
2022/09/04 09:45:56;;;;;;;6.05;1.88;;;22.40;99.90;;;;;;5042464;28;20048;-73
2022/09/04 09:49:01;;;;;;;4.50;1.75;;;22.50;99.90;;;;;;5041393;28;20581;-73
2022/09/04 09:51:43;;;;;;;6.55;2.00;;;23.00;99.90;;;;;;5050690;28;20498;-71
2022/09/04 09:54:22;;;;;;;8.50;2.00;;;22.60;99.90;;;;;;5028767;28;20384;-73
2022/09/04 09:56:54;;;;;;;7.50;2.13;;;22.60;99.90;;;;;;5018338;28;20503;-73
2022/09/04 09:59:33;;;;;;;8.53;2.10;;;22.60;99.90;;;;;;5024082;28;20171;-72
2022/09/04 10:02:23;;;;;;;6.25;1.90;;;22.60;99.90;;;;;;5047225;28;20291;-71
2022/09/04 10:05:28;;;;;;;6.70;1.73;;;22.80;99.90;;;;;;5028888;28;20033;-71
2022/09/04 10:08:33;;;;;;;5.90;1.98;;;22.80;99.90;;;;;;5043506;28;20033;-74
2022/09/04 10:11:43;;;;;;;6.65;1.90;;;22.90;99.90;;;;;;5025779;28;20049;-71
2022/09/04 10:14:18;;;;;;;8.15;2.20;;;23.10;99.90;;;;;;5039687;28;20098;-73
2022/09/04 10:16:44;;;;;;;5.65;1.95;;;23.10;99.90;;;;;;5042827;28;20041;-73
2022/09/04 10:19:16;;;;;;;5.55;1.98;;;23.20;99.90;;;;;;5007908;28;20040;-71
2022/09/04 10:22:21;;;;;;;16.53;8.87;;;23.80;99.90;;;;;;5049226;28;20037;-73
2022/09/04 10:24:56;;;;;;;9.15;2.83;;;23.80;99.90;;;;;;5044280;28;20294;-72
2022/09/04 10:27:25;;;;;;;8.57;2.30;;;24.10;99.90;;;;;;5047108;28;20515;-73
2022/09/04 10:30:17;;;;;;;10.13;2.13;;;24.10;99.90;;;;;;5012556;28;20033;-72
2022/09/04 10:33:01;;;;;;;7.45;2.03;;;24.20;99.70;;;;;;5045694;28;20049;-72
2022/09/04 10:35:34;;;;;;;6.18;2.00;;;24.20;99.90;;;;;;5007192;28;20041;-73
2022/09/04 10:38:15;;;;;;;;;;;24.20;99.90;;;;;;5030677;28;20052;-74
2022/09/04 10:40:56;;;;;;;5.72;1.92;;;24.20;99.80;;;;;;5032017;28;19916;-74
2022/09/04 10:43:21;;;;;;;6.35;1.88;;;24.20;99.90;;;;;;5050258;28;20410;-73
2022/09/04 10:46:08;;;;;;;5.75;1.90;;;24.30;99.70;;;;;;5048881;28;20028;-74
2022/09/04 10:48:52;;;;;;;4.97;1.75;;;24.30;99.30;;;;;;5061564;28;20091;-74
2022/09/04 10:51:26;;;;;;;8.35;1.92;;;24.30;99.50;;;;;;5070152;28;20058;-72
2022/09/04 10:54:13;;;;;;;6.38;2.05;;;24.30;99.00;;;;;;5070858;28;20126;-74
2022/09/04 10:57:17;;;;;;;5.97;1.90;;;24.30;99.40;;;;;;5032521;28;20044;-74
2022/09/04 11:00:08;;;;;;;6.55;1.80;;;24.20;98.70;;;;;;5049902;28;20036;-73
2022/09/04 11:03:10;;;;;;;7.60;2.00;;;24.30;98.90;;;;;;5048902;28;20384;-73
2022/09/04 11:06:07;;;;;;;6.82;2.10;;;22.50;98.60;;;;;;5040104;28;21209;-73
2022/09/04 11:09:02;;;;;;;5.93;1.90;;;24.40;98.90;;;;;;5049168;28;20494;-72
2022/09/04 11:11:58;;;;;;;7.47;1.85;;;24.40;99.30;;;;;;5066354;28;20041;-72
2022/09/04 11:14:39;;;;;;;6.85;1.90;;;24.40;99.00;;;;;;5049368;28;20124;-72
2022/09/04 11:17:23;;;;;;;6.43;2.15;;;24.40;98.90;;;;;;5065545;28;20075;-74
2022/09/04 11:20:08;;;;;;;4.75;1.80;;;24.40;98.70;;;;;;5046025;28;20040;-74
2022/09/04 11:22:58;;;;;;;5.68;2.10;;;24.50;98.80;;;;;;5030367;28;20075;-74
2022/09/04 11:25:23;;;;;;;5.72;1.88;;;24.50;98.50;;;;;;5072411;28;20098;-73
2022/09/04 11:28:04;;;;;;;9.13;2.10;;;24.50;98.60;;;;;;5052622;28;20033;-74
2022/09/04 11:30:39;;;;;;;5.85;2.03;;;24.60;98.30;;;;;;5065686;28;20132;-73
2022/09/04 11:33:04;;;;;;;5.68;1.90;;;24.80;98.90;;;;;;5066799;28;20038;-73
2022/09/04 11:36:02;;;;;;;4.18;1.65;;;24.90;98.70;;;;;;5050511;28;20469;-76
2022/09/04 11:38:42;;;;;;;7.38;2.45;;;25.00;98.10;;;;;;5046701;28;20127;-72
2022/09/04 11:41:36;;;;;;;5.72;1.92;;;25.10;98.00;;;;;;5065676;28;20036;-71
2022/09/04 11:44:11;;;;;;;7.20;1.98;;;25.10;98.00;;;;;;5032476;28;20052;-72
2022/09/04 11:47:17;;;;;;;5.45;1.75;;;25.30;97.90;;;;;;5032848;28;20044;-73
2022/09/04 11:49:49;;;;;;;8.57;2.08;;;25.30;97.60;;;;;;5060077;28;20048;-73
2022/09/04 11:52:45;;;;;;;10.93;2.20;;;25.20;97.90;;;;;;5047668;28;20076;-74
2022/09/04 11:55:23;;;;;;;5.97;2.17;;;25.30;97.90;;;;;;5052418;28;20040;-73
2022/09/04 11:58:08;;;;;;;7.10;2.10;;;25.30;97.90;;;;;;5044687;28;20053;-74
2022/09/04 12:00:58;;;;;;;6.35;2.00;;;25.20;97.70;;;;;;5063125;28;20291;-73
2022/09/04 12:03:41;;;;;;;6.53;2.25;;;25.30;97.50;;;;;;5045311;28;20491;-74
2022/09/04 12:06:13;;;;;;;6.20;2.00;;;25.30;97.50;;;;;;5068310;28;20043;-74
2022/09/04 12:09:03;;;;;;;5.63;2.03;;;25.30;97.80;;;;;;5034325;28;20043;-74
2022/09/04 12:12:04;;;;;;;6.88;2.03;;;25.40;98.00;;;;;;5069791;28;20028;-73
2022/09/04 12:15:07;;;;;;;7.60;1.95;;;23.50;96.80;;;;;;5068448;28;20048;-73
2022/09/04 12:17:55;;;;;;;5.95;2.20;;;25.40;96.90;;;;;;5069635;28;20066;-75
2022/09/04 12:20:47;;;;;;;6.50;1.90;;;25.80;97.40;;;;;;5084640;28;20044;-74
2022/09/04 12:23:31;;;;;;;7.33;2.13;;;25.70;97.20;;;;;;5069570;28;20036;-75
2022/09/04 12:26:36;;;;;;;4.85;1.80;;;25.70;96.60;;;;;;5068322;28;20036;-75
2022/09/04 12:29:31;;;;;;;8.98;2.10;;;25.70;97.20;;;;;;5033664;28;20518;-73
2022/09/04 12:32:25;;;;;;;5.07;1.88;;;25.80;97.70;;;;;;5066056;28;20045;-74
2022/09/04 12:35:25;;;;;;;7.50;2.00;;;25.90;97.00;;;;;;5084018;28;20040;-74
2022/09/04 12:38:00;;;;;;;7.30;2.00;;;25.90;96.60;;;;;;5033775;28;20055;-74
2022/09/04 12:40:58;;;;;;;6.05;2.00;;;25.80;96.80;;;;;;5044505;28;20273;-72
2022/09/04 12:43:38;;;;;;;5.53;1.80;;;25.80;96.50;;;;;;4357262;28;10000929;-72
2022/09/04 12:46:28;;;;;;;6.40;1.80;;;25.80;96.60;;;;;;5061746;28;20450;-74
2022/09/04 12:49:27;;;;;;;7.63;1.98;;;25.80;96.70;;;;;;5024217;28;20085;-72
2022/09/04 12:52:17;;;;;;;5.35;1.90;;;25.80;96.50;;;;;;5042699;28;20260;-72
2022/09/04 12:55:28;;;;;;;6.30;1.90;;;25.90;96.80;;;;;;5040461;28;20044;-73
2022/09/04 12:58:20;;;;;;;7.25;2.00;;;26.00;96.90;;;;;;5048032;28;20068;-73
2022/09/04 13:01:07;;;;;;;5.90;1.90;;;26.00;96.80;;;;;;5043091;28;20097;-71
2022/09/04 13:03:51;;;;;;;6.50;1.90;;;26.10;96.30;;;;;;5043141;28;20076;-72
2022/09/04 13:07:00;;;;;;;5.75;1.90;;;26.20;95.70;;;;;;5044983;28;20128;-73
2022/09/04 13:09:44;;;;;;;5.13;1.90;;;26.20;95.80;;;;;;5056728;28;20647;-73
2022/09/04 13:12:25;;;;;;;6.28;1.80;;;26.30;96.10;;;;;;5045738;28;20041;-73
2022/09/04 13:15:04;;;;;;;6.72;2.20;;;26.30;96.20;;;;;;5044014;28;20076;-72
2022/09/04 13:17:58;;;;;;;5.68;1.90;;;26.40;95.90;;;;;;5045041;28;20045;-73
2022/09/04 13:20:47;;;;;;;5.75;1.80;;;26.40;95.70;;;;;;5023500;28;20098;-73
2022/09/04 13:23:19;;;;;;;5.63;2.00;;;26.40;95.70;;;;;;5043329;28;20048;-73
2022/09/04 13:26:04;;;;;;;5.93;1.80;;;26.40;95.60;;;;;;5044044;28;20170;-73
2022/09/04 13:28:57;;;;;;;6.65;2.00;;;26.50;95.60;;;;;;5022083;28;20045;-73
2022/09/04 13:31:44;;;;;;;4.85;1.80;;;26.50;95.30;;;;;;5043096;28;20039;-73
2022/09/04 13:34:16;;;;;;;7.78;2.13;;;26.50;95.20;;;;;;5042982;28;20469;-73
2022/09/04 13:37:05;;;;;;;7.45;1.83;;;26.40;95.30;;;;;;5042738;28;20040;-73
2022/09/04 13:39:59;;;;;;;5.93;1.70;;;26.50;95.50;;;;;;5040947;28;20045;-72
2022/09/04 13:42:36;;;;;;;5.90;1.95;;;26.70;95.40;;;;;;5043552;28;20033;-73
2022/09/04 13:45:31;;;;;;;5.60;1.88;;;26.80;95.70;;;;;;5035140;28;20415;-73
2022/09/04 13:48:19;;;;;;;5.35;1.73;;;26.70;95.20;;;;;;5034014;28;20060;-73
2022/09/04 13:50:56;;;;;;;5.60;1.80;;;26.80;95.30;;;;;;5036925;28;20064;-73
2022/09/04 13:53:58;;;;;;;4.32;1.70;;;26.80;95.50;;;;;;5007385;28;20287;-73
2022/09/04 13:56:32;;;;;;;5.55;1.70;;;26.80;95.80;;;;;;5043450;28;20454;-73
2022/09/04 13:59:07;;;;;;;5.72;1.90;;;26.90;95.60;;;;;;5043039;28;20094;-73
2022/09/04 14:01:44;;;;;;;5.80;1.90;;;26.90;95.20;;;;;;5012324;28;20047;-73
2022/09/04 14:04:33;;;;;;;5.72;1.90;;;26.80;95.30;;;;;;5042615;28;20519;-72
2022/09/04 14:07:05;;;;;;;4.97;1.98;;;26.90;95.10;;;;;;5026274;28;20423;-74
2022/09/04 14:09:35;;;;;;;4.93;1.90;;;27.00;95.40;;;;;;5029366;28;20095;-73
2022/09/04 14:12:41;;;;;;;5.57;1.70;;;27.20;95.50;;;;;;5025162;28;20047;-73
2022/09/04 14:15:29;;;;;;;5.72;1.90;;;27.00;95.30;;;;;;5026274;28;20072;-73
2022/09/04 14:18:26;;;;;;;5.72;1.75;;;27.10;94.80;;;;;;5024300;28;20092;-73
2022/09/04 14:20:59;;;;;;;4.60;1.70;;;27.10;94.60;;;;;;5022315;28;20048;-72
2022/09/04 14:23:47;;;;;;;7.57;1.83;;;27.10;94.80;;;;;;5043217;28;20075;-72
2022/09/04 14:26:40;;;;;;;6.07;1.88;;;27.00;94.70;;;;;;5044462;28;20033;-73